KIXD

New Century Aircenter Airport

Olathe, Kansas, USA
METAR KIXD 180653Z AUTO 15008KT 10SM CLR 01/M06 A3016 RMK AO2 SLP217 T00061061
Observed Flight Rules
Feb-18 @ 06:53 UTC (22 minutes ago) Visual Flight Rules
Wind Visibility Clouds
150° at 8 knots 10 miles
  • Clear skies
Temperatures Readings
Current 1°C / 34°F
Dewpoint -6°C / 21°F
Humidity 60%
Altimeter 30.16" Hg
Pressure 1021.7 hPa
Elevation 342
METAR KIXD 180653Z AUTO 15008KT 10SM CLR 01/M06 A3016 RMK AO2 SLP217 T00061061
Observed Flight Rules
Feb-18 @ 06:53 UTC
(22 minutes ago)
VFR
Wind Visibility
150° at 8 knots 10 miles
Clouds
  • Clear skies
Temperature Dewpoint
1°C / 34°F -6°C / 21°F
Humidity Altimeter Pressure
60% 30.16" Hg 1021.7 hPa